Time,TemperatureF,DewpointF,PressureIn,WindDirection,WindDirectionDegrees,WindSpeedMPH,WindSpeedGustMPH,Humidity,HourlyPrecipIn,Conditions,Clouds,dailyrainin,SoftwareType,DateUTC
2013-11-28 00:03:00,25.7,19.8,29.94,North,-999,0.0,-999.0,78,-99.99,,,-99.99,Acu-Link.com,2013-11-28 06:03:00,
2013-11-28 00:18:00,24.2,19.5,29.95,North,-999,0.0,-999.0,82,-99.99,,,-99.99,Acu-Link.com,2013-11-28 06:18:00,
2013-11-28 00:34:00,24.5,20.4,29.95,North,-999,0.0,-999.0,84,-99.99,,,-99.99,Acu-Link.com,2013-11-28 06:34:00,
2013-11-28 00:49:00,25.2,22.2,29.95,North,-999,0.0,-999.0,88,-99.99,,,-99.99,Acu-Link.com,2013-11-28 06:49:00,
2013-11-28 01:04:00,27.7,23.5,29.96,North,-999,0.0,-999.0,84,-99.99,,,-99.99,Acu-Link.com,2013-11-28 07:04:00,
2013-11-28 01:20:00,26.1,21.7,29.97,North,-999,1.6,-999.0,83,-99.99,,,-99.99,Acu-Link.com,2013-11-28 07:20:00,
2013-11-28 01:35:00,27.0,23.7,29.98,North,-999,0.0,-999.0,87,-99.99,,,-99.99,Acu-Link.com,2013-11-28 07:35:00,
2013-11-28 01:50:00,28.3,24.4,29.99,North,-999,0.0,-999.0,85,-99.99,,,-99.99,Acu-Link.com,2013-11-28 07:50:00,
2013-11-28 02:05:00,30.2,25.1,29.99,North,-999,0.0,-999.0,81,-99.99,,,-99.99,Acu-Link.com,2013-11-28 08:05:00,
2013-11-28 02:20:00,29.4,24.6,30.00,North,-999,0.0,-999.0,82,-99.99,,,-99.99,Acu-Link.com,2013-11-28 08:20:00,
2013-11-28 02:35:00,29.5,24.1,30.01,North,-999,0.0,-999.0,80,-99.99,,,-99.99,Acu-Link.com,2013-11-28 08:35:00,
2013-11-28 02:50:00,28.2,23.4,30.02,North,-999,1.6,-999.0,82,-99.99,,,-99.99,Acu-Link.com,2013-11-28 08:50:00,
2013-11-28 03:05:00,27.8,23.0,30.03,North,-999,1.6,-999.0,82,-99.99,,,-99.99,Acu-Link.com,2013-11-28 09:05:00,
2013-11-28 03:21:00,27.9,23.1,30.04,North,-999,3.2,-999.0,82,-99.99,,,-99.99,Acu-Link.com,2013-11-28 09:21:00,
2013-11-28 03:36:00,27.5,22.7,30.04,North,-999,3.2,-999.0,82,-99.99,,,-99.99,Acu-Link.com,2013-11-28 09:36:00,
2013-11-28 03:52:00,26.5,22.6,30.04,North,-999,1.6,-999.0,85,-99.99,,,-99.99,Acu-Link.com,2013-11-28 09:52:00,
2013-11-28 04:07:00,26.7,22.5,30.05,North,-999,4.8,-999.0,84,-99.99,,,-99.99,Acu-Link.com,2013-11-28 10:07:00,
2013-11-28 04:22:00,25.9,22.3,30.05,North,-999,1.6,-999.0,86,-99.99,,,-99.99,Acu-Link.com,2013-11-28 10:22:00,
2013-11-28 04:38:00,25.6,22.3,30.06,North,-999,1.6,-999.0,87,-99.99,,,-99.99,Acu-Link.com,2013-11-28 10:38:00,
2013-11-28 04:53:00,24.8,21.8,30.08,North,-999,4.8,-999.0,88,-99.99,,,-99.99,Acu-Link.com,2013-11-28 10:53:00,
2013-11-28 05:08:00,24.8,21.5,30.08,North,-999,0.0,-999.0,87,-99.99,,,-99.99,Acu-Link.com,2013-11-28 11:08:00,
2013-11-28 05:23:00,24.3,21.3,30.10,North,-999,8.0,-999.0,88,-99.99,,,-99.99,Acu-Link.com,2013-11-28 11:23:00,
2013-11-28 05:39:00,23.7,20.4,30.10,North,-999,4.8,-999.0,87,-99.99,,,-99.99,Acu-Link.com,2013-11-28 11:39:00,
2013-11-28 05:54:00,23.1,19.5,30.12,North,-999,9.6,-999.0,86,-99.99,,,-99.99,Acu-Link.com,2013-11-28 11:54:00,
2013-11-28 06:09:00,22.5,19.2,30.13,North,-999,4.8,-999.0,87,-99.99,,,-99.99,Acu-Link.com,2013-11-28 12:09:00,
2013-11-28 06:25:00,22.2,20.0,30.13,North,-999,17.7,-999.0,91,-99.99,,,-99.99,Acu-Link.com,2013-11-28 12:25:00,
2013-11-28 06:40:00,22.6,20.6,30.15,North,-999,3.2,-999.0,92,-99.99,,,-99.99,Acu-Link.com,2013-11-28 12:40:00,
2013-11-28 06:56:00,23.5,21.5,30.16,North,-999,9.6,-999.0,92,-99.99,,,-99.99,Acu-Link.com,2013-11-28 12:56:00,
2013-11-28 07:11:00,24.4,22.2,30.17,North,-999,1.6,-999.0,91,-99.99,,,-99.99,Acu-Link.com,2013-11-28 13:11:00,
2013-11-28 07:26:00,25.0,22.5,30.17,North,-999,4.8,-999.0,90,-99.99,,,-99.99,Acu-Link.com,2013-11-28 13:26:00,
2013-11-28 07:41:00,25.3,22.8,30.17,North,-999,4.8,-999.0,90,-99.99,,,-99.99,Acu-Link.com,2013-11-28 13:41:00,
2013-11-28 07:56:00,25.6,22.8,30.19,North,-999,6.4,-999.0,89,-99.99,,,-99.99,Acu-Link.com,2013-11-28 13:56:00,
2013-11-28 08:11:00,25.9,23.1,30.20,North,-999,4.8,-999.0,89,-99.99,,,-99.99,Acu-Link.com,2013-11-28 14:11:00,
2013-11-28 08:27:00,26.2,23.1,30.21,North,-999,9.6,-999.0,88,-99.99,,,-99.99,Acu-Link.com,2013-11-28 14:27:00,
2013-11-28 08:42:00,26.5,23.2,30.22,North,-999,4.8,-999.0,87,-99.99,,,-99.99,Acu-Link.com,2013-11-28 14:42:00,
2013-11-28 08:57:00,26.7,22.8,30.22,North,-999,14.5,-999.0,85,-99.99,,,-99.99,Acu-Link.com,2013-11-28 14:57:00,
2013-11-28 09:12:00,26.7,23.1,30.23,North,-999,6.4,-999.0,86,-99.99,,,-99.99,Acu-Link.com,2013-11-28 15:12:00,
2013-11-28 09:28:00,27.0,23.1,30.24,North,-999,4.8,-999.0,85,-99.99,,,-99.99,Acu-Link.com,2013-11-28 15:28:00,
2013-11-28 09:43:00,27.5,23.3,30.24,North,-999,3.2,-999.0,84,-99.99,,,-99.99,Acu-Link.com,2013-11-28 15:43:00,
2013-11-28 09:58:00,27.8,23.3,30.25,North,-999,3.2,-999.0,83,-99.99,,,-99.99,Acu-Link.com,2013-11-28 15:58:00,
2013-11-28 10:13:00,27.9,23.1,30.26,North,-999,4.8,-999.0,82,-99.99,,,-99.99,Acu-Link.com,2013-11-28 16:13:00,
2013-11-28 10:28:00,27.9,23.1,30.26,North,-999,9.6,-999.0,82,-99.99,,,-99.99,Acu-Link.com,2013-11-28 16:28:00,
2013-11-28 10:44:00,27.8,22.7,30.27,North,-999,9.6,-999.0,81,-99.99,,,-99.99,Acu-Link.com,2013-11-28 16:44:00,
2013-11-28 10:59:00,28.4,22.4,30.27,North,-999,4.8,-999.0,78,-99.99,,,-99.99,Acu-Link.com,2013-11-28 16:59:00,
2013-11-28 11:14:00,29.1,21.5,30.27,North,-999,11.2,-999.0,73,-99.99,,,-99.99,Acu-Link.com,2013-11-28 17:14:00,
2013-11-28 11:30:00,31.6,21.6,30.27,North,-999,3.2,-999.0,66,-99.99,,,-99.99,Acu-Link.com,2013-11-28 17:30:00,
2013-11-28 11:45:00,30.6,19.9,30.27,North,-999,12.8,-999.0,64,-99.99,,,-99.99,Acu-Link.com,2013-11-28 17:45:00,
2013-11-28 12:00:00,33.2,20.4,30.27,North,-999,9.6,-999.0,59,-99.99,,,-99.99,Acu-Link.com,2013-11-28 18:00:00,
2013-11-28 12:15:00,33.5,20.3,30.26,North,-999,8.0,-999.0,58,-99.99,,,-99.99,Acu-Link.com,2013-11-28 18:15:00,
2013-11-28 12:30:00,33.9,20.3,30.26,North,-999,4.8,-999.0,57,-99.99,,,-99.99,Acu-Link.com,2013-11-28 18:30:00,
2013-11-28 12:45:00,32.8,19.7,30.27,North,-999,9.6,-999.0,58,-99.99,,,-99.99,Acu-Link.com,2013-11-28 18:45:00,
2013-11-28 13:01:00,35.1,20.6,30.27,North,-999,8.0,-999.0,55,-99.99,,,-99.99,Acu-Link.com,2013-11-28 19:01:00,
2013-11-28 13:16:00,34.8,20.7,30.27,North,-999,4.8,-999.0,56,-99.99,,,-99.99,Acu-Link.com,2013-11-28 19:16:00,
2013-11-28 13:31:00,36.9,20.0,30.26,North,-999,6.4,-999.0,50,-99.99,,,-99.99,Acu-Link.com,2013-11-28 19:31:00,
2013-11-28 13:47:00,34.3,19.4,30.26,North,-999,14.5,-999.0,54,-99.99,,,-99.99,Acu-Link.com,2013-11-28 19:47:00,
2013-11-28 14:02:00,36.7,20.3,30.26,North,-999,6.4,-999.0,51,-99.99,,,-99.99,Acu-Link.com,2013-11-28 20:02:00,
2013-11-28 14:18:00,36.8,20.8,30.26,North,-999,1.6,-999.0,52,-99.99,,,-99.99,Acu-Link.com,2013-11-28 20:18:00,
2013-11-28 14:33:00,37.5,20.6,30.26,North,-999,3.2,-999.0,50,-99.99,,,-99.99,Acu-Link.com,2013-11-28 20:33:00,
2013-11-28 14:48:00,35.5,20.1,30.26,North,-999,6.4,-999.0,53,-99.99,,,-99.99,Acu-Link.com,2013-11-28 20:48:00,
2013-11-28 15:03:00,34.3,19.8,30.26,North,-999,9.6,-999.0,55,-99.99,,,-99.99,Acu-Link.com,2013-11-28 21:03:00,
2013-11-28 15:18:00,34.3,19.8,30.27,North,-999,9.6,-999.0,55,-99.99,,,-99.99,Acu-Link.com,2013-11-28 21:18:00,
2013-11-28 15:34:00,32.2,19.5,30.27,North,-999,8.0,-999.0,59,-99.99,,,-99.99,Acu-Link.com,2013-11-28 21:34:00,
2013-11-28 15:49:00,31.9,19.6,30.28,North,-999,3.2,-999.0,60,-99.99,,,-99.99,Acu-Link.com,2013-11-28 21:49:00,
2013-11-28 16:04:00,31.3,19.8,30.29,North,-999,4.8,-999.0,62,-99.99,,,-99.99,Acu-Link.com,2013-11-28 22:04:00,
2013-11-28 16:20:00,30.6,19.5,30.30,North,-999,4.8,-999.0,63,-99.99,,,-99.99,Acu-Link.com,2013-11-28 22:20:00,
2013-11-28 16:35:00,29.5,19.2,30.29,North,-999,4.8,-999.0,65,-99.99,,,-99.99,Acu-Link.com,2013-11-28 22:35:00,
2013-11-28 16:50:00,28.2,18.3,30.30,North,-999,0.0,-999.0,66,-99.99,,,-99.99,Acu-Link.com,2013-11-28 22:50:00,
2013-11-28 17:05:00,26.1,17.7,30.31,North,-999,0.0,-999.0,70,-99.99,,,-99.99,Acu-Link.com,2013-11-28 23:05:00,
2013-11-28 17:20:00,23.0,16.0,30.31,North,-999,0.0,-999.0,74,-99.99,,,-99.99,Acu-Link.com,2013-11-28 23:20:00,
2013-11-28 17:35:00,22.2,16.4,30.31,North,-999,0.0,-999.0,78,-99.99,,,-99.99,Acu-Link.com,2013-11-28 23:35:00,
2013-11-28 17:51:00,20.5,15.0,30.32,North,-999,0.0,-999.0,79,-99.99,,,-99.99,Acu-Link.com,2013-11-28 23:51:00,
2013-11-28 18:06:00,19.2,15.2,30.32,North,-999,0.0,-999.0,84,-99.99,,,-99.99,Acu-Link.com,2013-11-29 00:06:00,
2013-11-28 18:22:00,18.9,15.2,30.32,North,-999,0.0,-999.0,85,-99.99,,,-99.99,Acu-Link.com,2013-11-29 00:22:00,
2013-11-28 18:37:00,18.5,15.0,30.32,North,-999,0.0,-999.0,86,-99.99,,,-99.99,Acu-Link.com,2013-11-29 00:37:00,
2013-11-28 18:52:00,18.3,14.8,30.33,North,-999,0.0,-999.0,86,-99.99,,,-99.99,Acu-Link.com,2013-11-29 00:52:00,
2013-11-28 19:08:00,17.8,14.9,30.33,North,-999,0.0,-999.0,88,-99.99,,,-99.99,Acu-Link.com,2013-11-29 01:08:00,
2013-11-28 19:23:00,17.7,15.5,30.33,North,-999,0.0,-999.0,91,-99.99,,,-99.99,Acu-Link.com,2013-11-29 01:23:00,
2013-11-28 19:38:00,17.6,15.2,30.33,North,-999,0.0,-999.0,90,-99.99,,,-99.99,Acu-Link.com,2013-11-29 01:38:00,
2013-11-28 19:54:00,18.0,15.8,30.33,North,-999,0.0,-999.0,91,-99.99,,,-99.99,Acu-Link.com,2013-11-29 01:54:00,
2013-11-28 20:09:00,16.8,14.4,30.34,North,-999,0.0,-999.0,90,-99.99,,,-99.99,Acu-Link.com,2013-11-29 02:09:00,
2013-11-28 20:24:00,17.4,15.7,30.33,North,-999,0.0,-999.0,93,-99.99,,,-99.99,Acu-Link.com,2013-11-29 02:24:00,
2013-11-28 20:40:00,17.1,15.4,30.34,North,-999,0.0,-999.0,93,-99.99,,,-99.99,Acu-Link.com,2013-11-29 02:40:00,
2013-11-28 20:56:00,15.9,14.2,30.34,North,-999,0.0,-999.0,93,-99.99,,,-99.99,Acu-Link.com,2013-11-29 02:56:00,
2013-11-28 21:11:00,15.1,13.7,30.35,North,-999,0.0,-999.0,94,-99.99,,,-99.99,Acu-Link.com,2013-11-29 03:11:00,
2013-11-28 21:26:00,14.3,13.1,30.35,North,-999,0.0,-999.0,95,-99.99,,,-99.99,Acu-Link.com,2013-11-29 03:26:00,
2013-11-28 21:41:00,13.7,12.5,30.35,North,-999,0.0,-999.0,95,-99.99,,,-99.99,Acu-Link.com,2013-11-29 03:41:00,
2013-11-28 21:57:00,13.8,13.1,30.35,North,-999,0.0,-999.0,97,-99.99,,,-99.99,Acu-Link.com,2013-11-29 03:57:00,
2013-11-28 22:12:00,13.9,13.4,30.35,North,-999,0.0,-999.0,98,-99.99,,,-99.99,Acu-Link.com,2013-11-29 04:12:00,
2013-11-28 22:27:00,13.7,13.0,30.34,North,-999,0.0,-999.0,97,-99.99,,,-99.99,Acu-Link.com,2013-11-29 04:27:00,
2013-11-28 22:42:00,13.5,12.8,30.34,North,-999,0.0,-999.0,97,-99.99,,,-99.99,Acu-Link.com,2013-11-29 04:42:00,
2013-11-28 22:57:00,13.9,13.7,30.34,North,-999,0.0,-999.0,99,-99.99,,,-99.99,Acu-Link.com,2013-11-29 04:57:00,
2013-11-28 23:12:00,13.4,12.9,30.34,North,-999,0.0,-999.0,98,-99.99,,,-99.99,Acu-Link.com,2013-11-29 05:12:00,
2013-11-28 23:28:00,13.5,13.3,30.35,North,-999,0.0,-999.0,99,-99.99,,,-99.99,Acu-Link.com,2013-11-29 05:28:00,
2013-11-28 23:43:00,13.5,13.3,30.34,North,-999,0.0,-999.0,99,-99.99,,,-99.99,Acu-Link.com,2013-11-29 05:43:00,
2013-11-28 23:58:00,14.2,14.0,30.35,North,-999,0.0,-999.0,99,-99.99,,,-99.99,Acu-Link.com,2013-11-29 05:58:00,